sensor_id;sensor_type;location;lat;lon;timestamp;temperature;humidity
78541;SHT31;67835;51.968;5.646;2024-03-02T00:01:54;11.4;53.6
78541;SHT31;67835;51.968;5.646;2024-03-02T00:04:22;11.4;53.6
78541;SHT31;67835;51.968;5.646;2024-03-02T00:06:53;11.4;53.5
78541;SHT31;67835;51.968;5.646;2024-03-02T00:09:24;11.4;53.6
78541;SHT31;67835;51.968;5.646;2024-03-02T00:11:53;11.4;53.6
78541;SHT31;67835;51.968;5.646;2024-03-02T00:14:22;11.4;53.6
78541;SHT31;67835;51.968;5.646;2024-03-02T00:16:56;11.5;53.6
78541;SHT31;67835;51.968;5.646;2024-03-02T00:19:25;11.5;53.5
78541;SHT31;67835;51.968;5.646;2024-03-02T00:21:53;11.5;53.5
78541;SHT31;67835;51.968;5.646;2024-03-02T00:24:30;11.5;53.6
78541;SHT31;67835;51.968;5.646;2024-03-02T00:27:01;11.6;53.7
78541;SHT31;67835;51.968;5.646;2024-03-02T00:29:34;11.6;53.8
78541;SHT31;67835;51.968;5.646;2024-03-02T00:32:03;11.6;54.4
78541;SHT31;67835;51.968;5.646;2024-03-02T00:34:35;11.6;55.2
78541;SHT31;67835;51.968;5.646;2024-03-02T00:37:03;11.5;55.2
78541;SHT31;67835;51.968;5.646;2024-03-02T00:39:32;11.4;55.2
78541;SHT31;67835;51.968;5.646;2024-03-02T00:42:01;11.4;55.5
78541;SHT31;67835;51.968;5.646;2024-03-02T00:44:29;11.4;55.4
78541;SHT31;67835;51.968;5.646;2024-03-02T00:47:02;11.3;55.7
78541;SHT31;67835;51.968;5.646;2024-03-02T00:49:30;11.3;55.7
78541;SHT31;67835;51.968;5.646;2024-03-02T00:52:01;11.3;55.7
78541;SHT31;67835;51.968;5.646;2024-03-02T00:54:30;11.3;55.5
78541;SHT31;67835;51.968;5.646;2024-03-02T00:56:58;11.3;55.8
78541;SHT31;67835;51.968;5.646;2024-03-02T00:59:27;11.3;56.5
78541;SHT31;67835;51.968;5.646;2024-03-02T01:01:56;11.3;57.6
78541;SHT31;67835;51.968;5.646;2024-03-02T01:04:24;11.3;58.0
78541;SHT31;67835;51.968;5.646;2024-03-02T01:06:52;11.3;58.4
78541;SHT31;67835;51.968;5.646;2024-03-02T01:09:21;11.2;58.7
78541;SHT31;67835;51.968;5.646;2024-03-02T01:11:50;11.2;59.0
78541;SHT31;67835;51.968;5.646;2024-03-02T01:14:18;11.2;59.2
78541;SHT31;67835;51.968;5.646;2024-03-02T01:16:47;11.1;59.4
78541;SHT31;67835;51.968;5.646;2024-03-02T01:19:15;11.1;59.9
78541;SHT31;67835;51.968;5.646;2024-03-02T01:21:44;11.1;59.9
78541;SHT31;67835;51.968;5.646;2024-03-02T01:24:12;11.1;60.1
78541;SHT31;67835;51.968;5.646;2024-03-02T01:26:41;11.1;60.5
78541;SHT31;67835;51.968;5.646;2024-03-02T01:29:10;11.0;60.6
78541;SHT31;67835;51.968;5.646;2024-03-02T01:31:38;11.0;61.1
78541;SHT31;67835;51.968;5.646;2024-03-02T01:34:08;11.0;61.3
78541;SHT31;67835;51.968;5.646;2024-03-02T01:36:39;11.0;61.2
78541;SHT31;67835;51.968;5.646;2024-03-02T01:39:07;10.9;61.4
78541;SHT31;67835;51.968;5.646;2024-03-02T01:41:37;10.9;61.3
78541;SHT31;67835;51.968;5.646;2024-03-02T01:44:06;10.9;61.3
78541;SHT31;67835;51.968;5.646;2024-03-02T01:46:35;10.9;61.3
78541;SHT31;67835;51.968;5.646;2024-03-02T01:49:04;10.9;61.5
78541;SHT31;67835;51.968;5.646;2024-03-02T01:51:32;10.9;61.5
78541;SHT31;67835;51.968;5.646;2024-03-02T01:54:01;10.8;61.6
78541;SHT31;67835;51.968;5.646;2024-03-02T01:56:29;10.8;61.5
78541;SHT31;67835;51.968;5.646;2024-03-02T01:58:58;10.8;61.6
78541;SHT31;67835;51.968;5.646;2024-03-02T02:01:27;10.8;61.8
78541;SHT31;67835;51.968;5.646;2024-03-02T02:03:55;10.8;61.9
78541;SHT31;67835;51.968;5.646;2024-03-02T02:06:24;10.8;62.0
78541;SHT31;67835;51.968;5.646;2024-03-02T02:08:52;10.8;61.9
78541;SHT31;67835;51.968;5.646;2024-03-02T02:11:25;10.8;61.9
78541;SHT31;67835;51.968;5.646;2024-03-02T02:13:53;10.8;62.0
78541;SHT31;67835;51.968;5.646;2024-03-02T02:16:22;10.8;62.0
78541;SHT31;67835;51.968;5.646;2024-03-02T02:18:51;10.8;61.8
78541;SHT31;67835;51.968;5.646;2024-03-02T02:21:24;10.7;61.8
78541;SHT31;67835;51.968;5.646;2024-03-02T02:23:53;10.7;61.9
78541;SHT31;67835;51.968;5.646;2024-03-02T02:26:22;10.7;62.0
78541;SHT31;67835;51.968;5.646;2024-03-02T02:28:51;10.7;62.1
78541;SHT31;67835;51.968;5.646;2024-03-02T02:31:19;10.7;62.2
78541;SHT31;67835;51.968;5.646;2024-03-02T02:33:48;10.7;62.3
78541;SHT31;67835;51.968;5.646;2024-03-02T02:36:16;10.6;63.3
78541;SHT31;67835;51.968;5.646;2024-03-02T02:38:48;10.6;63.7
78541;SHT31;67835;51.968;5.646;2024-03-02T02:41:17;10.6;63.9
78541;SHT31;67835;51.968;5.646;2024-03-02T02:43:45;10.6;64.3
78541;SHT31;67835;51.968;5.646;2024-03-02T02:46:13;10.6;64.5
78541;SHT31;67835;51.968;5.646;2024-03-02T02:48:44;10.5;64.9
78541;SHT31;67835;51.968;5.646;2024-03-02T02:51:12;10.5;65.3
78541;SHT31;67835;51.968;5.646;2024-03-02T02:53:40;10.5;65.2
78541;SHT31;67835;51.968;5.646;2024-03-02T02:56:09;10.5;65.4
78541;SHT31;67835;51.968;5.646;2024-03-02T02:58:40;10.5;65.5
78541;SHT31;67835;51.968;5.646;2024-03-02T03:01:08;10.4;65.7
78541;SHT31;67835;51.968;5.646;2024-03-02T03:03:37;10.4;65.8
78541;SHT31;67835;51.968;5.646;2024-03-02T03:06:07;10.4;65.4
78541;SHT31;67835;51.968;5.646;2024-03-02T03:08:35;10.4;65.5
78541;SHT31;67835;51.968;5.646;2024-03-02T03:11:04;10.3;65.4
78541;SHT31;67835;51.968;5.646;2024-03-02T03:13:34;10.3;65.7
78541;SHT31;67835;51.968;5.646;2024-03-02T03:16:04;10.2;66.0
78541;SHT31;67835;51.968;5.646;2024-03-02T03:18:32;10.2;66.1
78541;SHT31;67835;51.968;5.646;2024-03-02T03:21:00;10.1;66.0
78541;SHT31;67835;51.968;5.646;2024-03-02T03:23:29;10.1;66.1
78541;SHT31;67835;51.968;5.646;2024-03-02T03:25:57;10.1;66.2
78541;SHT31;67835;51.968;5.646;2024-03-02T03:28:25;10.0;66.2
78541;SHT31;67835;51.968;5.646;2024-03-02T03:30:54;10.0;66.5
78541;SHT31;67835;51.968;5.646;2024-03-02T03:33:22;10.0;66.2
78541;SHT31;67835;51.968;5.646;2024-03-02T03:35:51;10.0;65.9
78541;SHT31;67835;51.968;5.646;2024-03-02T03:38:19;10.0;66.0
78541;SHT31;67835;51.968;5.646;2024-03-02T03:40:48;10.0;65.9
78541;SHT31;67835;51.968;5.646;2024-03-02T03:43:17;10.0;65.8
78541;SHT31;67835;51.968;5.646;2024-03-02T03:45:47;10.0;65.6
78541;SHT31;67835;51.968;5.646;2024-03-02T03:48:15;10.0;65.5
78541;SHT31;67835;51.968;5.646;2024-03-02T03:50:45;9.9;65.2
78541;SHT31;67835;51.968;5.646;2024-03-02T03:53:13;9.9;65.3
78541;SHT31;67835;51.968;5.646;2024-03-02T03:55:42;9.9;65.1
78541;SHT31;67835;51.968;5.646;2024-03-02T03:58:13;9.9;65.1
78541;SHT31;67835;51.968;5.646;2024-03-02T04:00:42;9.9;65.0
78541;SHT31;67835;51.968;5.646;2024-03-02T04:03:11;9.9;65.3
78541;SHT31;67835;51.968;5.646;2024-03-02T04:05:39;9.9;65.4
78541;SHT31;67835;51.968;5.646;2024-03-02T04:08:08;9.9;65.5
78541;SHT31;67835;51.968;5.646;2024-03-02T08:00:16;14.5;48.1
78541;SHT31;67835;51.968;5.646;2024-03-02T08:02:45;14.6;47.8
78541;SHT31;67835;51.968;5.646;2024-03-02T08:05:13;14.8;47.2
78541;SHT31;67835;51.968;5.646;2024-03-02T08:07:43;14.9;47.1
78541;SHT31;67835;51.968;5.646;2024-03-02T08:10:13;14.9;46.8
78541;SHT31;67835;51.968;5.646;2024-03-02T08:12:42;15.0;46.4
78541;SHT31;67835;51.968;5.646;2024-03-02T08:15:13;15.0;46.5
78541;SHT31;67835;51.968;5.646;2024-03-02T08:17:42;15.0;46.2
78541;SHT31;67835;51.968;5.646;2024-03-02T08:20:15;15.1;45.9
78541;SHT31;67835;51.968;5.646;2024-03-02T08:22:45;15.1;45.6
78541;SHT31;67835;51.968;5.646;2024-03-02T08:25:14;15.0;45.9
78541;SHT31;67835;51.968;5.646;2024-03-02T08:27:43;15.0;45.7
78541;SHT31;67835;51.968;5.646;2024-03-02T08:30:13;15.0;45.3
78541;SHT31;67835;51.968;5.646;2024-03-02T08:32:42;15.0;45.2
78541;SHT31;67835;51.968;5.646;2024-03-02T08:35:11;14.9;45.4
78541;SHT31;67835;51.968;5.646;2024-03-02T08:37:41;14.7;45.4
78541;SHT31;67835;51.968;5.646;2024-03-02T08:40:11;14.6;45.5
78541;SHT31;67835;51.968;5.646;2024-03-02T08:42:41;14.6;46.0
78541;SHT31;67835;51.968;5.646;2024-03-02T08:45:10;14.6;46.5
78541;SHT31;67835;51.968;5.646;2024-03-02T08:47:39;14.6;46.3
78541;SHT31;67835;51.968;5.646;2024-03-02T08:50:08;14.8;46.3
78541;SHT31;67835;51.968;5.646;2024-03-02T08:52:36;15.0;46.2
78541;SHT31;67835;51.968;5.646;2024-03-02T08:55:06;15.2;45.0
78541;SHT31;67835;51.968;5.646;2024-03-02T08:57:38;15.5;43.6
78541;SHT31;67835;51.968;5.646;2024-03-02T09:00:07;15.8;43.1
78541;SHT31;67835;51.968;5.646;2024-03-02T09:02:37;16.0;42.7
78541;SHT31;67835;51.968;5.646;2024-03-02T09:05:07;16.3;42.2
78541;SHT31;67835;51.968;5.646;2024-03-02T09:07:40;16.5;41.4
78541;SHT31;67835;51.968;5.646;2024-03-02T09:10:09;16.7;41.0
78541;SHT31;67835;51.968;5.646;2024-03-02T09:12:38;17.0;40.7
78541;SHT31;67835;51.968;5.646;2024-03-02T09:15:08;17.4;40.7
78541;SHT31;67835;51.968;5.646;2024-03-02T09:17:37;17.9;38.7
78541;SHT31;67835;51.968;5.646;2024-03-02T09:20:08;18.4;38.0
78541;SHT31;67835;51.968;5.646;2024-03-02T09:22:38;19.0;36.7
78541;SHT31;67835;51.968;5.646;2024-03-02T09:25:07;19.4;36.0
78541;SHT31;67835;51.968;5.646;2024-03-02T09:27:38;19.8;34.3
78541;SHT31;67835;51.968;5.646;2024-03-02T09:30:08;19.9;34.5
78541;SHT31;67835;51.968;5.646;2024-03-02T09:32:38;20.1;34.4
78541;SHT31;67835;51.968;5.646;2024-03-02T09:35:07;20.2;34.0
78541;SHT31;67835;51.968;5.646;2024-03-02T09:37:36;20.3;34.2
78541;SHT31;67835;51.968;5.646;2024-03-02T09:40:05;20.5;33.1
78541;SHT31;67835;51.968;5.646;2024-03-02T09:42:36;20.6;33.7
78541;SHT31;67835;51.968;5.646;2024-03-02T09:45:09;20.8;34.1
78541;SHT31;67835;51.968;5.646;2024-03-02T09:47:39;21.1;33.1
78541;SHT31;67835;51.968;5.646;2024-03-02T09:50:08;21.4;32.9
78541;SHT31;67835;51.968;5.646;2024-03-02T09:52:38;21.7;31.8
78541;SHT31;67835;51.968;5.646;2024-03-02T09:55:08;21.9;31.6
78541;SHT31;67835;51.968;5.646;2024-03-02T09:57:37;22.1;32.0
78541;SHT31;67835;51.968;5.646;2024-03-02T10:00:07;22.3;31.4
78541;SHT31;67835;51.968;5.646;2024-03-02T10:02:40;22.5;30.9
78541;SHT31;67835;51.968;5.646;2024-03-02T10:05:10;22.7;30.7
78541;SHT31;67835;51.968;5.646;2024-03-02T10:07:39;22.9;30.1
78541;SHT31;67835;51.968;5.646;2024-03-02T10:10:15;23.0;30.3
78541;SHT31;67835;51.968;5.646;2024-03-02T10:12:44;23.1;29.5
78541;SHT31;67835;51.968;5.646;2024-03-02T10:15:12;23.3;30.3
78541;SHT31;67835;51.968;5.646;2024-03-02T10:17:41;23.4;29.8
78541;SHT31;67835;51.968;5.646;2024-03-02T10:20:23;23.7;30.1
78541;SHT31;67835;51.968;5.646;2024-03-02T10:22:56;24.0;28.8
78541;SHT31;67835;51.968;5.646;2024-03-02T10:25:34;24.3;28.2
78541;SHT31;67835;51.968;5.646;2024-03-02T10:28:04;24.5;27.4
78541;SHT31;67835;51.968;5.646;2024-03-02T10:30:34;24.6;27.6
78541;SHT31;67835;51.968;5.646;2024-03-02T10:33:03;24.7;26.8
78541;SHT31;67835;51.968;5.646;2024-03-02T10:35:34;24.8;27.5
78541;SHT31;67835;51.968;5.646;2024-03-02T10:38:06;24.9;26.7
78541;SHT31;67835;51.968;5.646;2024-03-02T10:40:34;25.1;26.9
78541;SHT31;67835;51.968;5.646;2024-03-02T10:43:07;25.2;26.0
78541;SHT31;67835;51.968;5.646;2024-03-02T10:45:37;25.3;26.5
78541;SHT31;67835;51.968;5.646;2024-03-02T10:48:08;25.5;25.9
78541;SHT31;67835;51.968;5.646;2024-03-02T10:50:38;25.6;26.1
78541;SHT31;67835;51.968;5.646;2024-03-02T10:53:07;25.7;25.3
78541;SHT31;67835;51.968;5.646;2024-03-02T10:55:35;25.8;25.1
78541;SHT31;67835;51.968;5.646;2024-03-02T10:58:06;25.8;25.1
78541;SHT31;67835;51.968;5.646;2024-03-02T11:00:39;25.9;24.8
78541;SHT31;67835;51.968;5.646;2024-03-02T11:03:11;25.9;25.1
78541;SHT31;67835;51.968;5.646;2024-03-02T11:05:44;25.9;25.2
78541;SHT31;67835;51.968;5.646;2024-03-02T11:08:19;26.0;25.3
78541;SHT31;67835;51.968;5.646;2024-03-02T11:10:57;26.1;24.8
78541;SHT31;67835;51.968;5.646;2024-03-02T11:13:32;26.2;25.8
78541;SHT31;67835;51.968;5.646;2024-03-02T11:16:05;26.3;25.9
78541;SHT31;67835;51.968;5.646;2024-03-02T11:18:35;26.4;24.7
78541;SHT31;67835;51.968;5.646;2024-03-02T11:21:05;26.6;24.6
78541;SHT31;67835;51.968;5.646;2024-03-02T11:23:35;26.7;24.2
78541;SHT31;67835;51.968;5.646;2024-03-02T11:26:19;26.8;24.2
78541;SHT31;67835;51.968;5.646;2024-03-02T11:28:49;26.8;24.7
78541;SHT31;67835;51.968;5.646;2024-03-02T11:31:18;26.9;25.0
78541;SHT31;67835;51.968;5.646;2024-03-02T11:33:49;27.0;24.2
78541;SHT31;67835;51.968;5.646;2024-03-02T11:36:18;27.1;23.3
78541;SHT31;67835;51.968;5.646;2024-03-02T11:38:47;27.2;23.4
78541;SHT31;67835;51.968;5.646;2024-03-02T11:41:19;27.2;23.4
78541;SHT31;67835;51.968;5.646;2024-03-02T11:43:48;27.3;23.1
78541;SHT31;67835;51.968;5.646;2024-03-02T11:46:16;27.3;23.1
78541;SHT31;67835;51.968;5.646;2024-03-02T11:48:48;27.4;22.7
78541;SHT31;67835;51.968;5.646;2024-03-02T11:51:16;27.4;23.1
78541;SHT31;67835;51.968;5.646;2024-03-02T11:53:49;27.5;23.0
78541;SHT31;67835;51.968;5.646;2024-03-02T11:56:20;27.6;22.1
78541;SHT31;67835;51.968;5.646;2024-03-02T11:58:54;27.6;22.2
78541;SHT31;67835;51.968;5.646;2024-03-02T12:01:23;27.6;22.5
78541;SHT31;67835;51.968;5.646;2024-03-02T12:03:53;27.6;22.1
78541;SHT31;67835;51.968;5.646;2024-03-02T12:06:22;27.6;22.5
78541;SHT31;67835;51.968;5.646;2024-03-02T12:08:54;27.7;22.5
78541;SHT31;67835;51.968;5.646;2024-03-02T12:11:23;27.8;22.5
78541;SHT31;67835;51.968;5.646;2024-03-02T12:13:54;27.9;22.0
78541;SHT31;67835;51.968;5.646;2024-03-02T12:16:25;27.8;22.0
78541;SHT31;67835;51.968;5.646;2024-03-02T12:18:54;27.6;22.1
78541;SHT31;67835;51.968;5.646;2024-03-02T12:21:23;27.3;22.3
78541;SHT31;67835;51.968;5.646;2024-03-02T12:23:52;27.0;22.9
78541;SHT31;67835;51.968;5.646;2024-03-02T12:26:22;26.8;23.2
78541;SHT31;67835;51.968;5.646;2024-03-02T12:28:51;26.6;23.9
78541;SHT31;67835;51.968;5.646;2024-03-02T12:31:20;26.5;23.5
78541;SHT31;67835;51.968;5.646;2024-03-02T12:33:49;26.3;24.3
78541;SHT31;67835;51.968;5.646;2024-03-02T12:36:17;26.3;24.5
78541;SHT31;67835;51.968;5.646;2024-03-02T12:38:46;26.2;24.8
78541;SHT31;67835;51.968;5.646;2024-03-02T12:41:16;26.1;24.0
78541;SHT31;67835;51.968;5.646;2024-03-02T12:43:45;26.1;23.9
78541;SHT31;67835;51.968;5.646;2024-03-02T12:46:14;25.9;24.1
78541;SHT31;67835;51.968;5.646;2024-03-02T12:48:43;25.5;24.7
78541;SHT31;67835;51.968;5.646;2024-03-02T12:51:12;25.1;25.3
78541;SHT31;67835;51.968;5.646;2024-03-02T12:53:40;24.7;25.8
78541;SHT31;67835;51.968;5.646;2024-03-02T12:56:10;24.3;26.2
78541;SHT31;67835;51.968;5.646;2024-03-02T12:58:41;24.1;26.4
78541;SHT31;67835;51.968;5.646;2024-03-02T13:01:10;23.9;27.0
78541;SHT31;67835;51.968;5.646;2024-03-02T13:03:44;23.8;26.8
78541;SHT31;67835;51.968;5.646;2024-03-02T13:06:14;23.6;26.9
78541;SHT31;67835;51.968;5.646;2024-03-02T13:08:45;23.5;26.8
78541;SHT31;67835;51.968;5.646;2024-03-02T13:11:16;23.4;27.5
78541;SHT31;67835;51.968;5.646;2024-03-02T13:13:45;23.3;27.7
78541;SHT31;67835;51.968;5.646;2024-03-02T13:16:14;23.2;28.3
78541;SHT31;67835;51.968;5.646;2024-03-02T13:18:44;23.2;27.9
78541;SHT31;67835;51.968;5.646;2024-03-02T13:21:14;23.3;27.7
78541;SHT31;67835;51.968;5.646;2024-03-02T13:23:42;23.3;27.8
78541;SHT31;67835;51.968;5.646;2024-03-02T13:26:10;23.3;28.3
78541;SHT31;67835;51.968;5.646;2024-03-02T13:28:40;23.3;27.7
78541;SHT31;67835;51.968;5.646;2024-03-02T13:31:08;23.3;27.4
78541;SHT31;67835;51.968;5.646;2024-03-02T13:33:37;23.2;27.8
78541;SHT31;67835;51.968;5.646;2024-03-02T13:36:06;23.2;28.1
78541;SHT31;67835;51.968;5.646;2024-03-02T13:38:36;23.2;27.6
78541;SHT31;67835;51.968;5.646;2024-03-02T13:41:07;23.1;28.5
78541;SHT31;67835;51.968;5.646;2024-03-02T13:43:38;23.2;28.2
78541;SHT31;67835;51.968;5.646;2024-03-02T13:46:07;23.3;27.9
78541;SHT31;67835;51.968;5.646;2024-03-02T13:48:37;23.4;27.6
78541;SHT31;67835;51.968;5.646;2024-03-02T13:51:08;23.4;27.2
78541;SHT31;67835;51.968;5.646;2024-03-02T13:53:36;23.4;27.3
78541;SHT31;67835;51.968;5.646;2024-03-02T13:56:05;23.3;27.3
78541;SHT31;67835;51.968;5.646;2024-03-02T13:58:34;23.3;27.5
78541;SHT31;67835;51.968;5.646;2024-03-02T14:01:02;23.2;26.8
78541;SHT31;67835;51.968;5.646;2024-03-02T14:03:31;23.2;27.6
78541;SHT31;67835;51.968;5.646;2024-03-02T14:06:00;23.1;27.2
78541;SHT31;67835;51.968;5.646;2024-03-02T14:08:29;23.0;27.9
78541;SHT31;67835;51.968;5.646;2024-03-02T14:11:00;23.0;28.0
78541;SHT31;67835;51.968;5.646;2024-03-02T14:13:28;22.9;28.4
78541;SHT31;67835;51.968;5.646;2024-03-02T14:15:59;22.9;27.9
78541;SHT31;67835;51.968;5.646;2024-03-02T14:18:28;22.8;28.0
78541;SHT31;67835;51.968;5.646;2024-03-02T14:20:56;22.8;28.6
78541;SHT31;67835;51.968;5.646;2024-03-02T14:23:24;22.7;28.4
78541;SHT31;67835;51.968;5.646;2024-03-02T14:25:56;22.7;28.5
78541;SHT31;67835;51.968;5.646;2024-03-02T14:28:25;22.6;28.5
78541;SHT31;67835;51.968;5.646;2024-03-02T14:30:54;22.6;28.1
78541;SHT31;67835;51.968;5.646;2024-03-02T14:33:23;22.5;28.7
78541;SHT31;67835;51.968;5.646;2024-03-02T14:35:51;22.5;29.2
78541;SHT31;67835;51.968;5.646;2024-03-02T14:38:22;22.4;28.1
78541;SHT31;67835;51.968;5.646;2024-03-02T14:40:51;22.4;28.6
78541;SHT31;67835;51.968;5.646;2024-03-02T14:43:19;22.3;29.7
78541;SHT31;67835;51.968;5.646;2024-03-02T14:45:49;22.2;29.5
78541;SHT31;67835;51.968;5.646;2024-03-02T14:48:17;22.1;29.5
78541;SHT31;67835;51.968;5.646;2024-03-02T14:50:46;22.0;29.8
78541;SHT31;67835;51.968;5.646;2024-03-02T14:53:15;21.9;29.4
78541;SHT31;67835;51.968;5.646;2024-03-02T14:55:44;21.8;29.3
78541;SHT31;67835;51.968;5.646;2024-03-02T14:58:12;21.7;30.2
78541;SHT31;67835;51.968;5.646;2024-03-02T15:00:42;21.6;30.1
78541;SHT31;67835;51.968;5.646;2024-03-02T15:03:10;21.5;30.5
78541;SHT31;67835;51.968;5.646;2024-03-02T15:05:39;21.4;30.2
78541;SHT31;67835;51.968;5.646;2024-03-02T15:08:08;21.2;30.4
78541;SHT31;67835;51.968;5.646;2024-03-02T15:10:37;21.1;31.1
78541;SHT31;67835;51.968;5.646;2024-03-02T15:13:06;21.0;31.2
78541;SHT31;67835;51.968;5.646;2024-03-02T15:15:35;20.9;32.1
78541;SHT31;67835;51.968;5.646;2024-03-02T15:18:05;20.8;32.9
78541;SHT31;67835;51.968;5.646;2024-03-02T15:20:34;20.8;33.0
78541;SHT31;67835;51.968;5.646;2024-03-02T15:23:04;20.7;32.3
78541;SHT31;67835;51.968;5.646;2024-03-02T15:25:32;20.7;32.8
78541;SHT31;67835;51.968;5.646;2024-03-02T15:28:01;20.6;33.0
78541;SHT31;67835;51.968;5.646;2024-03-02T15:30:32;20.5;33.0
78541;SHT31;67835;51.968;5.646;2024-03-02T15:33:01;20.4;33.4
78541;SHT31;67835;51.968;5.646;2024-03-02T15:35:29;20.3;33.8
78541;SHT31;67835;51.968;5.646;2024-03-02T15:38:00;20.2;34.1
78541;SHT31;67835;51.968;5.646;2024-03-02T15:40:30;20.1;34.1
78541;SHT31;67835;51.968;5.646;2024-03-02T15:42:58;20.0;34.3
78541;SHT31;67835;51.968;5.646;2024-03-02T15:45:27;19.8;34.6
78541;SHT31;67835;51.968;5.646;2024-03-02T15:48:00;19.7;35.3
78541;SHT31;67835;51.968;5.646;2024-03-02T15:50:29;19.6;35.2
78541;SHT31;67835;51.968;5.646;2024-03-02T15:53:05;19.5;35.6
78541;SHT31;67835;51.968;5.646;2024-03-02T15:55:34;19.4;36.0
78541;SHT31;67835;51.968;5.646;2024-03-02T15:58:02;19.3;36.4
78541;SHT31;67835;51.968;5.646;2024-03-02T16:00:32;19.1;37.2
78541;SHT31;67835;51.968;5.646;2024-03-02T16:03:07;19.0;37.4
78541;SHT31;67835;51.968;5.646;2024-03-02T16:05:36;19.0;37.5
78541;SHT31;67835;51.968;5.646;2024-03-02T16:08:05;18.9;37.7
78541;SHT31;67835;51.968;5.646;2024-03-02T16:10:34;18.8;38.2
78541;SHT31;67835;51.968;5.646;2024-03-02T16:13:03;18.7;38.5
78541;SHT31;67835;51.968;5.646;2024-03-02T16:15:32;18.6;38.8
78541;SHT31;67835;51.968;5.646;2024-03-02T16:18:00;18.5;39.2
78541;SHT31;67835;51.968;5.646;2024-03-02T16:20:29;18.4;38.9
78541;SHT31;67835;51.968;5.646;2024-03-02T16:22:57;18.3;39.3
78541;SHT31;67835;51.968;5.646;2024-03-02T16:25:26;18.2;39.1
78541;SHT31;67835;51.968;5.646;2024-03-02T16:27:56;18.1;39.2
78541;SHT31;67835;51.968;5.646;2024-03-02T16:30:27;17.9;40.1
78541;SHT31;67835;51.968;5.646;2024-03-02T16:32:56;17.8;40.8
78541;SHT31;67835;51.968;5.646;2024-03-02T16:35:24;17.7;41.3
78541;SHT31;67835;51.968;5.646;2024-03-02T16:37:53;17.5;41.8
78541;SHT31;67835;51.968;5.646;2024-03-02T16:40:21;17.4;42.3
78541;SHT31;67835;51.968;5.646;2024-03-02T16:42:50;17.3;42.6
78541;SHT31;67835;51.968;5.646;2024-03-02T16:45:18;17.2;43.0
78541;SHT31;67835;51.968;5.646;2024-03-02T16:47:47;17.1;43.5
78541;SHT31;67835;51.968;5.646;2024-03-02T16:50:16;17.0;44.0
78541;SHT31;67835;51.968;5.646;2024-03-02T16:52:45;16.8;44.7
78541;SHT31;67835;51.968;5.646;2024-03-02T16:55:13;16.7;44.9
78541;SHT31;67835;51.968;5.646;2024-03-02T16:57:46;16.6;45.1
78541;SHT31;67835;51.968;5.646;2024-03-02T17:00:15;16.5;45.4
78541;SHT31;67835;51.968;5.646;2024-03-02T17:02:44;16.4;45.8
78541;SHT31;67835;51.968;5.646;2024-03-02T17:05:12;16.3;46.0
78541;SHT31;67835;51.968;5.646;2024-03-02T17:07:41;16.2;46.3
78541;SHT31;67835;51.968;5.646;2024-03-02T17:10:10;16.1;46.5
78541;SHT31;67835;51.968;5.646;2024-03-02T17:12:39;16.0;46.7
78541;SHT31;67835;51.968;5.646;2024-03-02T17:15:09;15.9;47.2
78541;SHT31;67835;51.968;5.646;2024-03-02T17:17:38;15.8;47.4
78541;SHT31;67835;51.968;5.646;2024-03-02T17:20:07;15.7;47.6
78541;SHT31;67835;51.968;5.646;2024-03-02T17:22:40;15.6;47.9
78541;SHT31;67835;51.968;5.646;2024-03-02T17:25:09;15.5;48.2
78541;SHT31;67835;51.968;5.646;2024-03-02T17:27:37;15.5;48.4
78541;SHT31;67835;51.968;5.646;2024-03-02T17:30:06;15.4;48.4
78541;SHT31;67835;51.968;5.646;2024-03-02T17:32:35;15.3;48.4
78541;SHT31;67835;51.968;5.646;2024-03-02T17:35:04;15.3;48.7
78541;SHT31;67835;51.968;5.646;2024-03-02T17:37:33;15.2;48.7
78541;SHT31;67835;51.968;5.646;2024-03-02T17:40:04;15.2;48.8
78541;SHT31;67835;51.968;5.646;2024-03-02T17:42:35;15.1;48.8
78541;SHT31;67835;51.968;5.646;2024-03-02T17:45:05;15.1;49.0
78541;SHT31;67835;51.968;5.646;2024-03-02T17:47:34;15.1;49.0
78541;SHT31;67835;51.968;5.646;2024-03-02T17:50:03;15.1;49.2
78541;SHT31;67835;51.968;5.646;2024-03-02T17:52:32;15.0;49.2
78541;SHT31;67835;51.968;5.646;2024-03-02T17:55:01;15.0;49.4
78541;SHT31;67835;51.968;5.646;2024-03-02T17:57:30;15.0;49.4
78541;SHT31;67835;51.968;5.646;2024-03-02T17:59:59;15.0;49.5
78541;SHT31;67835;51.968;5.646;2024-03-02T18:02:27;15.0;49.5
78541;SHT31;67835;51.968;5.646;2024-03-02T18:04:56;15.0;49.7
78541;SHT31;67835;51.968;5.646;2024-03-02T18:07:25;15.0;49.7
78541;SHT31;67835;51.968;5.646;2024-03-02T18:09:54;15.0;49.8
78541;SHT31;67835;51.968;5.646;2024-03-02T18:12:26;15.0;50.0
78541;SHT31;67835;51.968;5.646;2024-03-02T18:14:55;15.0;50.1
78541;SHT31;67835;51.968;5.646;2024-03-02T18:17:24;15.0;50.0
78541;SHT31;67835;51.968;5.646;2024-03-02T18:19:54;15.0;50.2
78541;SHT31;67835;51.968;5.646;2024-03-02T18:22:23;15.0;50.1
78541;SHT31;67835;51.968;5.646;2024-03-02T18:24:51;14.9;50.2
78541;SHT31;67835;51.968;5.646;2024-03-02T18:27:20;14.9;50.4
78541;SHT31;67835;51.968;5.646;2024-03-02T18:29:48;14.9;50.2
78541;SHT31;67835;51.968;5.646;2024-03-02T18:32:17;14.9;49.9
78541;SHT31;67835;51.968;5.646;2024-03-02T18:34:45;14.9;49.8
78541;SHT31;67835;51.968;5.646;2024-03-02T18:37:14;14.9;49.8
78541;SHT31;67835;51.968;5.646;2024-03-02T18:39:48;14.9;49.9
78541;SHT31;67835;51.968;5.646;2024-03-02T18:42:16;14.9;49.7
78541;SHT31;67835;51.968;5.646;2024-03-02T18:44:45;14.9;49.7
78541;SHT31;67835;51.968;5.646;2024-03-02T18:47:16;14.9;49.8
78541;SHT31;67835;51.968;5.646;2024-03-02T18:49:47;14.9;49.7
78541;SHT31;67835;51.968;5.646;2024-03-02T18:52:16;14.9;49.7
78541;SHT31;67835;51.968;5.646;2024-03-02T18:54:44;14.9;49.5
78541;SHT31;67835;51.968;5.646;2024-03-02T18:57:13;14.9;49.1
78541;SHT31;67835;51.968;5.646;2024-03-02T18:59:42;14.9;49.0
78541;SHT31;67835;51.968;5.646;2024-03-02T19:02:11;14.9;49.1
78541;SHT31;67835;51.968;5.646;2024-03-02T19:04:40;14.9;49.1
78541;SHT31;67835;51.968;5.646;2024-03-02T19:07:08;14.9;48.9
78541;SHT31;67835;51.968;5.646;2024-03-02T19:09:36;14.9;48.5
78541;SHT31;67835;51.968;5.646;2024-03-02T19:12:06;14.9;48.4
78541;SHT31;67835;51.968;5.646;2024-03-02T19:14:35;14.9;48.3
78541;SHT31;67835;51.968;5.646;2024-03-02T19:17:04;14.9;48.3
78541;SHT31;67835;51.968;5.646;2024-03-02T19:19:32;14.9;48.4
78541;SHT31;67835;51.968;5.646;2024-03-02T19:22:01;14.9;48.4
78541;SHT31;67835;51.968;5.646;2024-03-02T19:24:29;14.9;48.4
78541;SHT31;67835;51.968;5.646;2024-03-02T19:26:57;14.9;48.4
78541;SHT31;67835;51.968;5.646;2024-03-02T19:29:26;14.8;48.4
78541;SHT31;67835;51.968;5.646;2024-03-02T19:31:55;14.8;48.4
78541;SHT31;67835;51.968;5.646;2024-03-02T19:34:24;14.8;48.5
78541;SHT31;67835;51.968;5.646;2024-03-02T19:36:53;14.8;48.4
78541;SHT31;67835;51.968;5.646;2024-03-02T19:39:25;14.7;48.6
78541;SHT31;67835;51.968;5.646;2024-03-02T19:41:54;14.7;48.8
78541;SHT31;67835;51.968;5.646;2024-03-02T19:44:25;14.7;48.9
78541;SHT31;67835;51.968;5.646;2024-03-02T19:46:58;14.7;49.1
78541;SHT31;67835;51.968;5.646;2024-03-02T19:49:27;14.6;48.9
78541;SHT31;67835;51.968;5.646;2024-03-02T19:51:55;14.6;49.0
78541;SHT31;67835;51.968;5.646;2024-03-02T19:54:24;14.6;49.2
78541;SHT31;67835;51.968;5.646;2024-03-02T19:56:53;14.6;49.2
78541;SHT31;67835;51.968;5.646;2024-03-02T19:59:22;14.5;49.2
78541;SHT31;67835;51.968;5.646;2024-03-02T20:01:50;14.5;49.4
78541;SHT31;67835;51.968;5.646;2024-03-02T20:04:19;14.5;49.4
78541;SHT31;67835;51.968;5.646;2024-03-02T20:06:51;14.4;49.6